sensor_id;sensor_type;location;lat;lon;timestamp;P1;durP1;ratioP1;P2;durP2;ratioP2
4601;SDS011;2313;48.552;9.370;2022-09-30T00:01:40;2.57;;;2.37;;
4601;SDS011;2313;48.552;9.370;2022-09-30T00:04:08;3.07;;;2.40;;
4601;SDS011;2313;48.552;9.370;2022-09-30T00:06:37;3.67;;;2.90;;
4601;SDS011;2313;48.552;9.370;2022-09-30T00:09:02;3.13;;;2.80;;
4601;SDS011;2313;48.552;9.370;2022-09-30T00:11:30;5.53;;;2.87;;
4601;SDS011;2313;48.552;9.370;2022-09-30T00:13:58;3.10;;;2.80;;
4601;SDS011;2313;48.552;9.370;2022-09-30T00:16:27;3.53;;;3.20;;
4601;SDS011;2313;48.552;9.370;2022-09-30T00:18:55;2.90;;;2.70;;
4601;SDS011;2313;48.552;9.370;2022-09-30T00:21:21;3.40;;;2.73;;
4601;SDS011;2313;48.552;9.370;2022-09-30T00:23:48;2.60;;;2.40;;
4601;SDS011;2313;48.552;9.370;2022-09-30T00:26:15;5.33;;;2.90;;
4601;SDS011;2313;48.552;9.370;2022-09-30T00:28:43;3.40;;;3.10;;
4601;SDS011;2313;48.552;9.370;2022-09-30T00:31:13;4.90;;;2.60;;
4601;SDS011;2313;48.552;9.370;2022-09-30T00:33:40;2.97;;;2.50;;
4601;SDS011;2313;48.552;9.370;2022-09-30T00:36:07;4.33;;;2.80;;
4601;SDS011;2313;48.552;9.370;2022-09-30T00:38:33;3.47;;;3.13;;
4601;SDS011;2313;48.552;9.370;2022-09-30T00:41:00;4.10;;;2.80;;
4601;SDS011;2313;48.552;9.370;2022-09-30T00:43:43;2.83;;;2.23;;
4601;SDS011;2313;48.552;9.370;2022-09-30T00:46:18;4.00;;;2.50;;
4601;SDS011;2313;48.552;9.370;2022-09-30T00:48:56;3.33;;;2.43;;
4601;SDS011;2313;48.552;9.370;2022-09-30T00:51:35;3.03;;;2.57;;
4601;SDS011;2313;48.552;9.370;2022-09-30T00:54:07;2.97;;;2.77;;
4601;SDS011;2313;48.552;9.370;2022-09-30T00:56:38;3.40;;;3.10;;
4601;SDS011;2313;48.552;9.370;2022-09-30T00:59:09;3.83;;;2.80;;
4601;SDS011;2313;48.552;9.370;2022-09-30T01:01:40;3.53;;;2.80;;
4601;SDS011;2313;48.552;9.370;2022-09-30T01:04:10;4.60;;;3.03;;
4601;SDS011;2313;48.552;9.370;2022-09-30T01:06:47;3.13;;;2.93;;
4601;SDS011;2313;48.552;9.370;2022-09-30T01:09:14;3.37;;;3.10;;
4601;SDS011;2313;48.552;9.370;2022-09-30T01:11:39;4.70;;;3.60;;
4601;SDS011;2313;48.552;9.370;2022-09-30T01:14:07;4.43;;;3.70;;
4601;SDS011;2313;48.552;9.370;2022-09-30T01:24:44;5.60;;;4.47;;
4601;SDS011;2313;48.552;9.370;2022-09-30T01:36:23;8.80;;;4.37;;
4601;SDS011;2313;48.552;9.370;2022-09-30T01:50:06;12.50;;;4.90;;
4601;SDS011;2313;48.552;9.370;2022-09-30T01:52:39;6.00;;;4.50;;
4601;SDS011;2313;48.552;9.370;2022-09-30T01:55:35;6.77;;;4.33;;
4601;SDS011;2313;48.552;9.370;2022-09-30T01:58:11;5.20;;;4.20;;
4601;SDS011;2313;48.552;9.370;2022-09-30T02:00:46;5.13;;;4.10;;
4601;SDS011;2313;48.552;9.370;2022-09-30T02:03:21;5.03;;;3.90;;
4601;SDS011;2313;48.552;9.370;2022-09-30T02:06:02;5.83;;;4.03;;
4601;SDS011;2313;48.552;9.370;2022-09-30T02:08:37;7.00;;;4.50;;
4601;SDS011;2313;48.552;9.370;2022-09-30T02:11:22;8.47;;;4.90;;
4601;SDS011;2313;48.552;9.370;2022-09-30T02:14:01;4.77;;;4.27;;
4601;SDS011;2313;48.552;9.370;2022-09-30T02:19:41;6.80;;;4.73;;
4601;SDS011;2313;48.552;9.370;2022-09-30T02:22:13;6.47;;;4.63;;
4601;SDS011;2313;48.552;9.370;2022-09-30T02:24:50;7.60;;;4.87;;
4601;SDS011;2313;48.552;9.370;2022-09-30T02:27:22;5.60;;;4.40;;
4601;SDS011;2313;48.552;9.370;2022-09-30T02:29:54;6.70;;;5.50;;
4601;SDS011;2313;48.552;9.370;2022-09-30T02:32:25;4.90;;;4.07;;
4601;SDS011;2313;48.552;9.370;2022-09-30T02:34:57;9.80;;;6.00;;
4601;SDS011;2313;48.552;9.370;2022-09-30T02:37:31;6.47;;;5.07;;
4601;SDS011;2313;48.552;9.370;2022-09-30T02:42:35;9.87;;;5.43;;
4601;SDS011;2313;48.552;9.370;2022-09-30T02:45:04;7.20;;;4.43;;
4601;SDS011;2313;48.552;9.370;2022-09-30T02:50:15;5.97;;;4.23;;
4601;SDS011;2313;48.552;9.370;2022-09-30T02:55:45;5.93;;;4.80;;
4601;SDS011;2313;48.552;9.370;2022-09-30T02:58:32;6.67;;;4.83;;
4601;SDS011;2313;48.552;9.370;2022-09-30T03:01:01;7.50;;;4.37;;
4601;SDS011;2313;48.552;9.370;2022-09-30T03:03:29;6.80;;;4.80;;
4601;SDS011;2313;48.552;9.370;2022-09-30T03:05:59;6.60;;;4.40;;
4601;SDS011;2313;48.552;9.370;2022-09-30T03:08:25;6.10;;;4.60;;
4601;SDS011;2313;48.552;9.370;2022-09-30T03:10:51;7.50;;;4.57;;
4601;SDS011;2313;48.552;9.370;2022-09-30T03:16:19;5.17;;;4.17;;
4601;SDS011;2313;48.552;9.370;2022-09-30T03:22:05;4.13;;;3.70;;
4601;SDS011;2313;48.552;9.370;2022-09-30T03:24:54;9.53;;;5.00;;
4601;SDS011;2313;48.552;9.370;2022-09-30T03:30:24;5.60;;;4.73;;
4601;SDS011;2313;48.552;9.370;2022-09-30T03:33:26;7.50;;;4.60;;
4601;SDS011;2313;48.552;9.370;2022-09-30T03:36:04;5.80;;;4.10;;
4601;SDS011;2313;48.552;9.370;2022-09-30T03:41:34;6.30;;;4.50;;
4601;SDS011;2313;48.552;9.370;2022-09-30T03:46:50;6.63;;;5.17;;
4601;SDS011;2313;48.552;9.370;2022-09-30T03:49:27;6.10;;;5.00;;
4601;SDS011;2313;48.552;9.370;2022-09-30T03:51:57;14.07;;;5.60;;
4601;SDS011;2313;48.552;9.370;2022-09-30T03:54:24;5.57;;;4.70;;
4601;SDS011;2313;48.552;9.370;2022-09-30T03:56:50;6.00;;;5.20;;
4601;SDS011;2313;48.552;9.370;2022-09-30T03:59:21;5.70;;;5.00;;
4601;SDS011;2313;48.552;9.370;2022-09-30T04:01:48;6.53;;;5.20;;
4601;SDS011;2313;48.552;9.370;2022-09-30T04:04:14;9.10;;;5.00;;
4601;SDS011;2313;48.552;9.370;2022-09-30T04:06:40;7.50;;;5.63;;
4601;SDS011;2313;48.552;9.370;2022-09-30T04:09:05;9.80;;;6.17;;
4601;SDS011;2313;48.552;9.370;2022-09-30T04:11:31;14.00;;;4.90;;
4601;SDS011;2313;48.552;9.370;2022-09-30T04:13:56;6.53;;;5.43;;
4601;SDS011;2313;48.552;9.370;2022-09-30T04:16:22;9.23;;;5.77;;
4601;SDS011;2313;48.552;9.370;2022-09-30T04:18:48;7.57;;;6.63;;
4601;SDS011;2313;48.552;9.370;2022-09-30T04:21:15;12.07;;;6.73;;
4601;SDS011;2313;48.552;9.370;2022-09-30T04:23:41;10.23;;;6.13;;
4601;SDS011;2313;48.552;9.370;2022-09-30T04:26:09;9.60;;;6.00;;
4601;SDS011;2313;48.552;9.370;2022-09-30T04:28:36;9.83;;;7.10;;
4601;SDS011;2313;48.552;9.370;2022-09-30T04:31:02;8.27;;;5.47;;
4601;SDS011;2313;48.552;9.370;2022-09-30T04:33:29;12.33;;;6.80;;
4601;SDS011;2313;48.552;9.370;2022-09-30T04:35:55;7.00;;;5.60;;
4601;SDS011;2313;48.552;9.370;2022-09-30T04:38:22;15.73;;;6.20;;
4601;SDS011;2313;48.552;9.370;2022-09-30T04:40:49;6.83;;;5.43;;
4601;SDS011;2313;48.552;9.370;2022-09-30T04:43:16;7.77;;;5.90;;
4601;SDS011;2313;48.552;9.370;2022-09-30T04:45:43;11.77;;;8.53;;
4601;SDS011;2313;48.552;9.370;2022-09-30T04:48:09;25.20;;;13.60;;
4601;SDS011;2313;48.552;9.370;2022-09-30T04:50:35;7.53;;;5.90;;
4601;SDS011;2313;48.552;9.370;2022-09-30T04:53:01;8.53;;;5.00;;
4601;SDS011;2313;48.552;9.370;2022-09-30T04:55:28;7.47;;;4.13;;
4601;SDS011;2313;48.552;9.370;2022-09-30T04:57:54;10.13;;;4.70;;
4601;SDS011;2313;48.552;9.370;2022-09-30T05:00:19;7.53;;;4.73;;
4601;SDS011;2313;48.552;9.370;2022-09-30T05:02:45;6.60;;;4.57;;
4601;SDS011;2313;48.552;9.370;2022-09-30T05:05:11;9.03;;;5.50;;
4601;SDS011;2313;48.552;9.370;2022-09-30T05:07:37;5.17;;;4.57;;
4601;SDS011;2313;48.552;9.370;2022-09-30T05:10:03;8.47;;;5.03;;
4601;SDS011;2313;48.552;9.370;2022-09-30T05:12:29;10.70;;;5.20;;
4601;SDS011;2313;48.552;9.370;2022-09-30T05:14:55;8.47;;;5.30;;
4601;SDS011;2313;48.552;9.370;2022-09-30T05:17:21;5.73;;;5.00;;
4601;SDS011;2313;48.552;9.370;2022-09-30T05:19:47;7.60;;;5.80;;
4601;SDS011;2313;48.552;9.370;2022-09-30T05:22:13;9.20;;;5.97;;
4601;SDS011;2313;48.552;9.370;2022-09-30T05:24:38;6.60;;;5.73;;
4601;SDS011;2313;48.552;9.370;2022-09-30T05:27:04;47.20;;;8.70;;
4601;SDS011;2313;48.552;9.370;2022-09-30T05:29:30;9.87;;;5.67;;
4601;SDS011;2313;48.552;9.370;2022-09-30T05:31:56;11.70;;;5.13;;
4601;SDS011;2313;48.552;9.370;2022-09-30T05:34:22;9.33;;;6.00;;
4601;SDS011;2313;48.552;9.370;2022-09-30T05:36:47;8.60;;;5.57;;
4601;SDS011;2313;48.552;9.370;2022-09-30T05:39:13;10.03;;;4.50;;
4601;SDS011;2313;48.552;9.370;2022-09-30T05:41:38;9.37;;;5.00;;
4601;SDS011;2313;48.552;9.370;2022-09-30T05:44:04;11.43;;;4.50;;
4601;SDS011;2313;48.552;9.370;2022-09-30T05:46:31;10.90;;;4.93;;
4601;SDS011;2313;48.552;9.370;2022-09-30T05:48:56;6.47;;;4.47;;
4601;SDS011;2313;48.552;9.370;2022-09-30T05:51:22;7.37;;;6.17;;
4601;SDS011;2313;48.552;9.370;2022-09-30T05:53:48;6.80;;;5.80;;
4601;SDS011;2313;48.552;9.370;2022-09-30T05:56:13;5.60;;;5.07;;
4601;SDS011;2313;48.552;9.370;2022-09-30T05:58:40;15.63;;;4.80;;
4601;SDS011;2313;48.552;9.370;2022-09-30T06:01:10;8.23;;;5.20;;
4601;SDS011;2313;48.552;9.370;2022-09-30T06:03:36;13.83;;;5.03;;
4601;SDS011;2313;48.552;9.370;2022-09-30T06:06:02;9.03;;;6.03;;
4601;SDS011;2313;48.552;9.370;2022-09-30T06:08:29;8.17;;;5.03;;
4601;SDS011;2313;48.552;9.370;2022-09-30T06:10:58;7.60;;;5.80;;
4601;SDS011;2313;48.552;9.370;2022-09-30T06:13:24;7.33;;;5.10;;
4601;SDS011;2313;48.552;9.370;2022-09-30T06:15:57;13.80;;;5.50;;
4601;SDS011;2313;48.552;9.370;2022-09-30T06:18:24;15.37;;;6.77;;
4601;SDS011;2313;48.552;9.370;2022-09-30T06:20:51;13.47;;;7.43;;
4601;SDS011;2313;48.552;9.370;2022-09-30T06:23:20;11.73;;;7.83;;
4601;SDS011;2313;48.552;9.370;2022-09-30T06:25:50;18.07;;;7.70;;
4601;SDS011;2313;48.552;9.370;2022-09-30T06:28:16;11.07;;;7.33;;
4601;SDS011;2313;48.552;9.370;2022-09-30T06:30:42;7.80;;;6.57;;
4601;SDS011;2313;48.552;9.370;2022-09-30T06:33:08;8.97;;;7.60;;
4601;SDS011;2313;48.552;9.370;2022-09-30T06:35:34;14.13;;;7.77;;
4601;SDS011;2313;48.552;9.370;2022-09-30T06:38:00;13.70;;;9.67;;
4601;SDS011;2313;48.552;9.370;2022-09-30T06:40:27;17.33;;;9.83;;
4601;SDS011;2313;48.552;9.370;2022-09-30T06:42:57;13.53;;;9.77;;
4601;SDS011;2313;48.552;9.370;2022-09-30T06:45:26;17.73;;;9.43;;
4601;SDS011;2313;48.552;9.370;2022-09-30T06:47:56;11.83;;;8.07;;
4601;SDS011;2313;48.552;9.370;2022-09-30T06:50:22;16.93;;;8.87;;
4601;SDS011;2313;48.552;9.370;2022-09-30T06:52:48;12.17;;;9.00;;
4601;SDS011;2313;48.552;9.370;2022-09-30T06:55:15;10.13;;;7.70;;
4601;SDS011;2313;48.552;9.370;2022-09-30T06:57:42;12.37;;;7.50;;
4601;SDS011;2313;48.552;9.370;2022-09-30T07:00:10;15.23;;;8.30;;
4601;SDS011;2313;48.552;9.370;2022-09-30T07:02:36;17.57;;;8.47;;
4601;SDS011;2313;48.552;9.370;2022-09-30T07:05:04;12.67;;;7.57;;
4601;SDS011;2313;48.552;9.370;2022-09-30T07:07:29;12.47;;;8.20;;
4601;SDS011;2313;48.552;9.370;2022-09-30T07:09:58;9.87;;;6.90;;
4601;SDS011;2313;48.552;9.370;2022-09-30T07:12:24;10.03;;;8.00;;
4601;SDS011;2313;48.552;9.370;2022-09-30T07:14:50;15.13;;;8.60;;
4601;SDS011;2313;48.552;9.370;2022-09-30T07:17:16;16.33;;;8.80;;
4601;SDS011;2313;48.552;9.370;2022-09-30T07:19:42;12.93;;;8.50;;
4601;SDS011;2313;48.552;9.370;2022-09-30T07:22:08;12.43;;;9.17;;
4601;SDS011;2313;48.552;9.370;2022-09-30T07:24:57;11.90;;;9.47;;
4601;SDS011;2313;48.552;9.370;2022-09-30T07:27:24;12.10;;;8.73;;
4601;SDS011;2313;48.552;9.370;2022-09-30T07:29:51;14.10;;;9.03;;
4601;SDS011;2313;48.552;9.370;2022-09-30T07:32:17;13.30;;;7.60;;
4601;SDS011;2313;48.552;9.370;2022-09-30T07:34:43;11.07;;;8.20;;
4601;SDS011;2313;48.552;9.370;2022-09-30T07:37:09;16.47;;;8.57;;
4601;SDS011;2313;48.552;9.370;2022-09-30T07:39:38;14.80;;;9.70;;
4601;SDS011;2313;48.552;9.370;2022-09-30T07:42:05;14.20;;;8.70;;
4601;SDS011;2313;48.552;9.370;2022-09-30T07:44:31;14.30;;;8.70;;
4601;SDS011;2313;48.552;9.370;2022-09-30T07:46:57;11.43;;;8.60;;
4601;SDS011;2313;48.552;9.370;2022-09-30T07:49:24;13.00;;;8.50;;
4601;SDS011;2313;48.552;9.370;2022-09-30T07:51:53;11.47;;;7.40;;
4601;SDS011;2313;48.552;9.370;2022-09-30T07:54:22;16.33;;;7.70;;
4601;SDS011;2313;48.552;9.370;2022-09-30T07:56:49;12.20;;;8.30;;
4601;SDS011;2313;48.552;9.370;2022-09-30T07:59:16;11.47;;;8.47;;
4601;SDS011;2313;48.552;9.370;2022-09-30T08:01:42;17.70;;;10.07;;
4601;SDS011;2313;48.552;9.370;2022-09-30T08:04:09;13.90;;;9.73;;
4601;SDS011;2313;48.552;9.370;2022-09-30T08:06:37;10.33;;;8.90;;
4601;SDS011;2313;48.552;9.370;2022-09-30T08:09:04;17.07;;;9.10;;
4601;SDS011;2313;48.552;9.370;2022-09-30T08:11:34;18.80;;;10.57;;
4601;SDS011;2313;48.552;9.370;2022-09-30T08:14:01;11.80;;;9.13;;
4601;SDS011;2313;48.552;9.370;2022-09-30T08:16:27;13.53;;;9.57;;
4601;SDS011;2313;48.552;9.370;2022-09-30T08:18:53;16.90;;;9.23;;
4601;SDS011;2313;48.552;9.370;2022-09-30T08:21:20;11.97;;;9.23;;
4601;SDS011;2313;48.552;9.370;2022-09-30T08:23:46;15.20;;;10.00;;
4601;SDS011;2313;48.552;9.370;2022-09-30T08:26:12;16.93;;;11.00;;
4601;SDS011;2313;48.552;9.370;2022-09-30T08:28:39;16.87;;;10.80;;
4601;SDS011;2313;48.552;9.370;2022-09-30T08:31:12;18.47;;;10.23;;
4601;SDS011;2313;48.552;9.370;2022-09-30T08:33:40;12.13;;;9.73;;
4601;SDS011;2313;48.552;9.370;2022-09-30T08:36:16;15.03;;;10.73;;
4601;SDS011;2313;48.552;9.370;2022-09-30T08:38:43;13.00;;;10.20;;
4601;SDS011;2313;48.552;9.370;2022-09-30T08:44:08;18.90;;;10.30;;
4601;SDS011;2313;48.552;9.370;2022-09-30T08:46:51;10.90;;;9.10;;
4601;SDS011;2313;48.552;9.370;2022-09-30T08:51:52;11.90;;;9.37;;
4601;SDS011;2313;48.552;9.370;2022-09-30T08:54:19;15.13;;;10.33;;
4601;SDS011;2313;48.552;9.370;2022-09-30T08:56:48;19.30;;;9.80;;
4601;SDS011;2313;48.552;9.370;2022-09-30T09:02:21;12.03;;;9.27;;
4601;SDS011;2313;48.552;9.370;2022-09-30T09:04:56;13.40;;;9.53;;
4601;SDS011;2313;48.552;9.370;2022-09-30T09:20:57;14.13;;;9.23;;
4601;SDS011;2313;48.552;9.370;2022-09-30T09:23:28;12.27;;;8.93;;
4601;SDS011;2313;48.552;9.370;2022-09-30T09:25:57;12.43;;;8.30;;
4601;SDS011;2313;48.552;9.370;2022-09-30T09:30:56;8.57;;;6.70;;
4601;SDS011;2313;48.552;9.370;2022-09-30T09:33:25;6.93;;;6.23;;
4601;SDS011;2313;48.552;9.370;2022-09-30T09:36:04;10.33;;;8.10;;
4601;SDS011;2313;48.552;9.370;2022-09-30T09:38:39;14.90;;;8.60;;
4601;SDS011;2313;48.552;9.370;2022-09-30T09:44:17;8.53;;;6.50;;
4601;SDS011;2313;48.552;9.370;2022-09-30T09:47:04;15.63;;;7.20;;
4601;SDS011;2313;48.552;9.370;2022-09-30T09:49:59;6.50;;;5.90;;
4601;SDS011;2313;48.552;9.370;2022-09-30T09:52:36;9.93;;;7.03;;
4601;SDS011;2313;48.552;9.370;2022-09-30T09:55:04;10.07;;;5.30;;
4601;SDS011;2313;48.552;9.370;2022-09-30T09:57:29;6.90;;;6.17;;
4601;SDS011;2313;48.552;9.370;2022-09-30T09:59:57;8.93;;;6.20;;
4601;SDS011;2313;48.552;9.370;2022-09-30T10:05:31;13.07;;;5.67;;
4601;SDS011;2313;48.552;9.370;2022-09-30T10:08:10;5.43;;;4.33;;
4601;SDS011;2313;48.552;9.370;2022-09-30T10:11:02;9.90;;;5.80;;
4601;SDS011;2313;48.552;9.370;2022-09-30T10:16:02;5.63;;;4.33;;
4601;SDS011;2313;48.552;9.370;2022-09-30T10:18:33;5.97;;;4.77;;
4601;SDS011;2313;48.552;9.370;2022-09-30T10:21:07;5.70;;;4.30;;
4601;SDS011;2313;48.552;9.370;2022-09-30T10:23:47;4.83;;;4.37;;
4601;SDS011;2313;48.552;9.370;2022-09-30T10:28:46;5.27;;;4.40;;
4601;SDS011;2313;48.552;9.370;2022-09-30T10:33:40;6.50;;;4.23;;
4601;SDS011;2313;48.552;9.370;2022-09-30T10:36:16;8.20;;;4.17;;
4601;SDS011;2313;48.552;9.370;2022-09-30T10:41:28;5.93;;;4.03;;
4601;SDS011;2313;48.552;9.370;2022-09-30T10:43:56;6.30;;;3.93;;
4601;SDS011;2313;48.552;9.370;2022-09-30T10:46:35;6.17;;;4.03;;
4601;SDS011;2313;48.552;9.370;2022-09-30T10:49:38;7.97;;;2.97;;
4601;SDS011;2313;48.552;9.370;2022-09-30T10:51:58;5.37;;;3.43;;
4601;SDS011;2313;48.552;9.370;2022-09-30T10:57:49;4.10;;;3.70;;
4601;SDS011;2313;48.552;9.370;2022-09-30T11:00:11;5.17;;;3.33;;
4601;SDS011;2313;48.552;9.370;2022-09-30T11:05:16;6.50;;;3.60;;
4601;SDS011;2313;48.552;9.370;2022-09-30T11:13:05;7.10;;;3.30;;
4601;SDS011;2313;48.552;9.370;2022-09-30T11:15:48;5.83;;;3.00;;
4601;SDS011;2313;48.552;9.370;2022-09-30T11:18:38;8.03;;;3.23;;
4601;SDS011;2313;48.552;9.370;2022-09-30T11:21:53;4.93;;;3.10;;
4601;SDS011;2313;48.552;9.370;2022-09-30T11:24:43;5.40;;;3.03;;
4601;SDS011;2313;48.552;9.370;2022-09-30T11:27:13;5.27;;;3.40;;
4601;SDS011;2313;48.552;9.370;2022-09-30T11:30:02;3.37;;;2.60;;
4601;SDS011;2313;48.552;9.370;2022-09-30T11:42:54;5.93;;;2.70;;
4601;SDS011;2313;48.552;9.370;2022-09-30T12:02:26;3.33;;;2.20;;
4601;SDS011;2313;48.552;9.370;2022-09-30T12:05:06;4.50;;;2.17;;
4601;SDS011;2313;48.552;9.370;2022-09-30T12:08:02;3.60;;;2.10;;
4601;SDS011;2313;48.552;9.370;2022-09-30T12:10:36;3.60;;;1.57;;
4601;SDS011;2313;48.552;9.370;2022-09-30T12:13:11;5.20;;;2.73;;
4601;SDS011;2313;48.552;9.370;2022-09-30T12:15:43;3.43;;;2.10;;
4601;SDS011;2313;48.552;9.370;2022-09-30T12:18:12;3.47;;;2.10;;
4601;SDS011;2313;48.552;9.370;2022-09-30T12:20:49;3.90;;;1.87;;
4601;SDS011;2313;48.552;9.370;2022-09-30T12:23:32;3.63;;;1.77;;
4601;SDS011;2313;48.552;9.370;2022-09-30T12:26:05;5.53;;;1.87;;
4601;SDS011;2313;48.552;9.370;2022-09-30T12:31:19;1.60;;;1.43;;
4601;SDS011;2313;48.552;9.370;2022-09-30T12:34:05;2.73;;;1.70;;
4601;SDS011;2313;48.552;9.370;2022-09-30T12:36:41;9.60;;;2.20;;
4601;SDS011;2313;48.552;9.370;2022-09-30T12:48:04;4.43;;;1.70;;
4601;SDS011;2313;48.552;9.370;2022-09-30T12:50:54;3.00;;;1.60;;
4601;SDS011;2313;48.552;9.370;2022-09-30T12:53:25;2.77;;;1.70;;
4601;SDS011;2313;48.552;9.370;2022-09-30T12:55:53;4.57;;;1.87;;
4601;SDS011;2313;48.552;9.370;2022-09-30T12:58:42;2.50;;;1.70;;
4601;SDS011;2313;48.552;9.370;2022-09-30T13:01:14;1.90;;;1.43;;
4601;SDS011;2313;48.552;9.370;2022-09-30T13:03:50;9.20;;;1.83;;
4601;SDS011;2313;48.552;9.370;2022-09-30T13:33:04;2.20;;;1.83;;
4601;SDS011;2313;48.552;9.370;2022-09-30T13:43:25;2.77;;;1.60;;
4601;SDS011;2313;48.552;9.370;2022-09-30T13:48:53;6.27;;;1.80;;
4601;SDS011;2313;48.552;9.370;2022-09-30T13:51:26;1.47;;;1.30;;
4601;SDS011;2313;48.552;9.370;2022-09-30T13:53:56;4.20;;;1.90;;
4601;SDS011;2313;48.552;9.370;2022-09-30T13:56:28;2.60;;;1.23;;
4601;SDS011;2313;48.552;9.370;2022-09-30T14:23:58;2.67;;;1.50;;
4601;SDS011;2313;48.552;9.370;2022-09-30T14:31:41;1.83;;;1.40;;
4601;SDS011;2313;48.552;9.370;2022-09-30T14:34:11;6.07;;;1.47;;
4601;SDS011;2313;48.552;9.370;2022-09-30T14:36:38;3.20;;;1.93;;
4601;SDS011;2313;48.552;9.370;2022-09-30T14:39:05;3.93;;;1.30;;
4601;SDS011;2313;48.552;9.370;2022-09-30T14:41:39;3.60;;;1.40;;
4601;SDS011;2313;48.552;9.370;2022-09-30T14:44:11;6.90;;;1.20;;
4601;SDS011;2313;48.552;9.370;2022-09-30T14:46:42;2.90;;;1.13;;
4601;SDS011;2313;48.552;9.370;2022-09-30T14:49:12;5.50;;;2.23;;
4601;SDS011;2313;48.552;9.370;2022-09-30T14:51:42;3.80;;;1.43;;
4601;SDS011;2313;48.552;9.370;2022-09-30T14:54:18;2.10;;;1.67;;
4601;SDS011;2313;48.552;9.370;2022-09-30T14:56:48;3.77;;;1.53;;
4601;SDS011;2313;48.552;9.370;2022-09-30T14:59:18;3.30;;;1.57;;
4601;SDS011;2313;48.552;9.370;2022-09-30T15:01:51;2.07;;;1.37;;
4601;SDS011;2313;48.552;9.370;2022-09-30T15:04:28;2.03;;;1.50;;
4601;SDS011;2313;48.552;9.370;2022-09-30T15:06:56;3.63;;;1.70;;
4601;SDS011;2313;48.552;9.370;2022-09-30T15:09:29;7.73;;;1.90;;
4601;SDS011;2313;48.552;9.370;2022-09-30T15:12:28;5.03;;;1.90;;
4601;SDS011;2313;48.552;9.370;2022-09-30T15:14:55;2.83;;;1.80;;
4601;SDS011;2313;48.552;9.370;2022-09-30T15:17:23;2.03;;;1.40;;
4601;SDS011;2313;48.552;9.370;2022-09-30T15:19:51;4.40;;;1.40;;
4601;SDS011;2313;48.552;9.370;2022-09-30T15:22:17;4.50;;;1.97;;
4601;SDS011;2313;48.552;9.370;2022-09-30T15:24:45;2.93;;;1.40;;
4601;SDS011;2313;48.552;9.370;2022-09-30T15:27:20;3.43;;;1.30;;
4601;SDS011;2313;48.552;9.370;2022-09-30T15:29:55;3.03;;;1.30;;
4601;SDS011;2313;48.552;9.370;2022-09-30T15:32:23;8.33;;;2.60;;
4601;SDS011;2313;48.552;9.370;2022-09-30T15:34:51;2.00;;;1.40;;
4601;SDS011;2313;48.552;9.370;2022-09-30T15:37:23;2.33;;;1.57;;
4601;SDS011;2313;48.552;9.370;2022-09-30T15:39:53;2.17;;;1.30;;
4601;SDS011;2313;48.552;9.370;2022-09-30T15:42:45;1.50;;;1.30;;
4601;SDS011;2313;48.552;9.370;2022-09-30T15:45:33;3.20;;;1.30;;
4601;SDS011;2313;48.552;9.370;2022-09-30T15:48:10;1.63;;;1.23;;
4601;SDS011;2313;48.552;9.370;2022-09-30T15:50:55;4.03;;;2.50;;
4601;SDS011;2313;48.552;9.370;2022-09-30T15:55:57;3.07;;;1.30;;
4601;SDS011;2313;48.552;9.370;2022-09-30T16:03:38;7.63;;;3.13;;
4601;SDS011;2313;48.552;9.370;2022-09-30T16:06:30;4.10;;;1.90;;
4601;SDS011;2313;48.552;9.370;2022-09-30T16:11:43;3.73;;;1.33;;
4601;SDS011;2313;48.552;9.370;2022-09-30T16:14:27;4.67;;;2.10;;
4601;SDS011;2313;48.552;9.370;2022-09-30T16:16:56;3.00;;;1.53;;
4601;SDS011;2313;48.552;9.370;2022-09-30T16:19:24;11.00;;;1.40;;
4601;SDS011;2313;48.552;9.370;2022-09-30T16:21:51;1.53;;;1.30;;
4601;SDS011;2313;48.552;9.370;2022-09-30T16:26:47;3.13;;;1.20;;
4601;SDS011;2313;48.552;9.370;2022-09-30T16:29:14;3.27;;;1.70;;
4601;SDS011;2313;48.552;9.370;2022-09-30T16:31:41;2.43;;;1.40;;
4601;SDS011;2313;48.552;9.370;2022-09-30T16:34:12;3.53;;;1.43;;
4601;SDS011;2313;48.552;9.370;2022-09-30T16:36:46;2.70;;;1.57;;
4601;SDS011;2313;48.552;9.370;2022-09-30T16:39:13;2.30;;;1.50;;
4601;SDS011;2313;48.552;9.370;2022-09-30T16:41:40;7.83;;;4.23;;
4601;SDS011;2313;48.552;9.370;2022-09-30T16:44:07;9.20;;;6.30;;
4601;SDS011;2313;48.552;9.370;2022-09-30T16:46:32;7.50;;;4.93;;
4601;SDS011;2313;48.552;9.370;2022-09-30T16:48:58;4.40;;;3.37;;
4601;SDS011;2313;48.552;9.370;2022-09-30T16:51:24;6.80;;;5.10;;
4601;SDS011;2313;48.552;9.370;2022-09-30T16:53:51;6.00;;;3.90;;
4601;SDS011;2313;48.552;9.370;2022-09-30T16:56:18;4.40;;;1.83;;
4601;SDS011;2313;48.552;9.370;2022-09-30T16:58:44;1.70;;;1.60;;
4601;SDS011;2313;48.552;9.370;2022-09-30T17:01:18;3.60;;;1.90;;
4601;SDS011;2313;48.552;9.370;2022-09-30T17:03:45;3.10;;;1.30;;
4601;SDS011;2313;48.552;9.370;2022-09-30T17:06:12;3.10;;;1.40;;
4601;SDS011;2313;48.552;9.370;2022-09-30T17:08:39;3.37;;;1.97;;
4601;SDS011;2313;48.552;9.370;2022-09-30T17:11:05;5.57;;;1.90;;
4601;SDS011;2313;48.552;9.370;2022-09-30T17:13:31;1.60;;;1.50;;
4601;SDS011;2313;48.552;9.370;2022-09-30T17:15:57;1.43;;;1.07;;
4601;SDS011;2313;48.552;9.370;2022-09-30T17:18:23;25.00;;;6.50;;
4601;SDS011;2313;48.552;9.370;2022-09-30T17:20:48;17.33;;;6.30;;
4601;SDS011;2313;48.552;9.370;2022-09-30T17:23:17;4.60;;;2.50;;
4601;SDS011;2313;48.552;9.370;2022-09-30T17:25:44;11.30;;;3.40;;
4601;SDS011;2313;48.552;9.370;2022-09-30T17:28:10;4.37;;;2.20;;
4601;SDS011;2313;48.552;9.370;2022-09-30T17:30:37;3.20;;;1.87;;
4601;SDS011;2313;48.552;9.370;2022-09-30T17:33:05;1.57;;;1.47;;
4601;SDS011;2313;48.552;9.370;2022-09-30T17:35:34;2.00;;;1.90;;
4601;SDS011;2313;48.552;9.370;2022-09-30T17:38:05;3.70;;;1.60;;
4601;SDS011;2313;48.552;9.370;2022-09-30T17:40:31;4.53;;;1.87;;
4601;SDS011;2313;48.552;9.370;2022-09-30T17:43:15;15.33;;;4.07;;
4601;SDS011;2313;48.552;9.370;2022-09-30T17:45:42;8.30;;;4.70;;
4601;SDS011;2313;48.552;9.370;2022-09-30T17:48:10;9.80;;;5.67;;
4601;SDS011;2313;48.552;9.370;2022-09-30T17:50:37;11.70;;;6.73;;
4601;SDS011;2313;48.552;9.370;2022-09-30T17:53:04;9.40;;;7.10;;
4601;SDS011;2313;48.552;9.370;2022-09-30T17:55:31;12.17;;;7.63;;
4601;SDS011;2313;48.552;9.370;2022-09-30T17:58:00;13.40;;;7.23;;
4601;SDS011;2313;48.552;9.370;2022-09-30T18:00:28;10.90;;;7.13;;
4601;SDS011;2313;48.552;9.370;2022-09-30T18:02:58;13.33;;;7.97;;
4601;SDS011;2313;48.552;9.370;2022-09-30T18:05:24;15.40;;;8.40;;
4601;SDS011;2313;48.552;9.370;2022-09-30T18:07:50;14.47;;;8.43;;
4601;SDS011;2313;48.552;9.370;2022-09-30T18:10:16;15.00;;;8.20;;
4601;SDS011;2313;48.552;9.370;2022-09-30T18:12:42;12.67;;;8.87;;
4601;SDS011;2313;48.552;9.370;2022-09-30T18:15:08;13.83;;;9.00;;
4601;SDS011;2313;48.552;9.370;2022-09-30T18:17:34;17.20;;;9.77;;
4601;SDS011;2313;48.552;9.370;2022-09-30T18:20:00;14.07;;;8.87;;
4601;SDS011;2313;48.552;9.370;2022-09-30T18:22:26;12.93;;;8.80;;
4601;SDS011;2313;48.552;9.370;2022-09-30T18:24:51;11.10;;;7.80;;
4601;SDS011;2313;48.552;9.370;2022-09-30T18:27:35;13.63;;;9.17;;
4601;SDS011;2313;48.552;9.370;2022-09-30T18:30:04;15.27;;;9.50;;
4601;SDS011;2313;48.552;9.370;2022-09-30T18:32:30;14.43;;;9.13;;
4601;SDS011;2313;48.552;9.370;2022-09-30T18:34:56;15.17;;;9.00;;
4601;SDS011;2313;48.552;9.370;2022-09-30T18:37:22;14.57;;;9.60;;
4601;SDS011;2313;48.552;9.370;2022-09-30T18:39:48;14.77;;;8.90;;
4601;SDS011;2313;48.552;9.370;2022-09-30T18:42:14;16.33;;;9.73;;
4601;SDS011;2313;48.552;9.370;2022-09-30T18:44:42;15.23;;;9.40;;
4601;SDS011;2313;48.552;9.370;2022-09-30T18:47:08;12.67;;;9.43;;
4601;SDS011;2313;48.552;9.370;2022-09-30T18:49:34;15.60;;;8.87;;
4601;SDS011;2313;48.552;9.370;2022-09-30T18:51:59;14.00;;;8.87;;
4601;SDS011;2313;48.552;9.370;2022-09-30T18:54:27;14.30;;;8.90;;
4601;SDS011;2313;48.552;9.370;2022-09-30T18:56:53;12.43;;;7.60;;
4601;SDS011;2313;48.552;9.370;2022-09-30T18:59:19;10.60;;;7.73;;
4601;SDS011;2313;48.552;9.370;2022-09-30T19:01:45;12.43;;;8.87;;
4601;SDS011;2313;48.552;9.370;2022-09-30T19:04:13;14.43;;;9.20;;
4601;SDS011;2313;48.552;9.370;2022-09-30T19:06:40;12.90;;;8.90;;
4601;SDS011;2313;48.552;9.370;2022-09-30T19:09:07;13.00;;;9.43;;
4601;SDS011;2313;48.552;9.370;2022-09-30T19:11:33;14.07;;;9.10;;
4601;SDS011;2313;48.552;9.370;2022-09-30T19:14:00;11.33;;;8.47;;
4601;SDS011;2313;48.552;9.370;2022-09-30T19:16:27;11.63;;;8.30;;